Time;durP1;ratioP1;P1;durP2;ratioP2;P2;SDS_P1;SDS_P2;PMS_P1;PMS_P2;Temp;Humidity;BMP_temperature;BMP_pressure;BME280_temperature;BME280_humidity;BME280_pressure;Samples;Min_cycle;Max_cycle;Signal;HPM_P1;HPM_P2
2024/02/07 00:01:12;;;;;;;4.55;2.30;;;12.10;70.70;;;;;;2216627;57;20964;-66
2024/02/07 00:03:39;;;;;;;4.28;2.35;;;12.00;70.50;;;;;;2214980;56;21003;-66
2024/02/07 00:06:05;;;;;;;5.68;2.50;;;12.00;70.40;;;;;;2212685;56;21073;-67
2024/02/07 00:08:31;;;;;;;5.18;2.20;;;12.00;70.30;;;;;;2217010;57;20982;-67
2024/02/07 00:10:58;;;;;;;3.95;2.08;;;12.00;70.50;;;;;;2436369;56;21034;-68
2024/02/07 00:13:28;;;;;;;4.15;2.30;;;12.00;70.50;;;;;;2216629;56;21473;-68
2024/02/07 00:15:54;;;;;;;5.87;2.30;;;12.00;70.50;;;;;;2216795;57;21042;-68
2024/02/07 00:18:21;;;;;;;4.53;2.12;;;12.00;70.40;;;;;;2436008;56;20966;-67
2024/02/07 00:20:47;;;;;;;3.75;1.90;;;12.00;70.30;;;;;;2216437;57;20993;-68
2024/02/07 00:23:13;;;;;;;4.22;2.10;;;12.10;70.50;;;;;;2217311;57;21859;-67
2024/02/07 00:25:40;;;;;;;5.15;1.80;;;12.00;70.50;;;;;;2216014;56;21070;-68
2024/02/07 00:28:06;;;;;;;4.37;2.17;;;12.00;70.50;;;;;;2219701;57;20969;-68
2024/02/07 00:30:32;;;;;;;4.70;2.47;;;12.00;70.50;;;;;;2216168;57;21014;-67
2024/02/07 00:33:00;;;;;;;3.85;2.22;;;12.00;70.50;;;;;;2216626;56;20970;-66
2024/02/07 00:35:26;;;;;;;5.00;2.35;;;12.10;70.70;;;;;;2216850;56;20977;-67
2024/02/07 00:37:55;;;;;;;4.93;2.25;;;12.00;70.60;;;;;;2215738;56;21022;-66
2024/02/07 00:40:22;;;;;;;4.50;2.30;;;11.90;70.50;;;;;;2216685;56;20977;-66
2024/02/07 00:42:51;;;;;;;4.72;2.25;;;12.10;70.70;;;;;;2217238;56;20965;-68
2024/02/07 00:45:20;;;;;;;5.65;2.47;;;12.10;70.70;;;;;;2218442;57;21053;-66
2024/02/07 00:47:46;;;;;;;4.53;2.25;;;12.10;70.60;;;;;;2217277;57;21093;-67
2024/02/07 00:50:12;;;;;;;4.50;2.40;;;12.10;70.60;;;;;;2217226;56;21019;-66
2024/02/07 00:52:41;;;;;;;4.53;2.20;;;12.10;70.60;;;;;;2216793;57;20982;-68
2024/02/07 00:55:11;;;;;;;5.75;2.15;;;12.10;70.70;;;;;;2217502;57;21452;-68
2024/02/07 00:57:38;;;;;;;5.62;2.58;;;12.10;70.70;;;;;;2215911;56;21009;-66
2024/02/07 01:00:05;;;;;;;4.90;2.12;;;12.10;70.70;;;;;;2436560;56;20998;-66
2024/02/07 01:02:31;;;;;;;5.45;2.42;;;12.10;70.70;;;;;;2436058;56;20969;-67
2024/02/07 01:04:58;;;;;;;4.18;1.92;;;12.20;70.70;;;;;;2217321;56;21687;-68
2024/02/07 01:07:24;;;;;;;4.28;1.92;;;12.20;70.80;;;;;;2435369;56;20942;-68
2024/02/07 01:09:56;;;;;;;4.25;2.20;;;12.20;70.80;;;;;;2216757;57;20966;-67
2024/02/07 01:12:23;;;;;;;4.57;2.35;;;12.20;70.50;;;;;;2214754;56;20969;-65
2024/02/07 01:14:49;;;;;;;4.60;2.25;;;12.20;70.60;;;;;;2215955;57;21018;-67
2024/02/07 01:17:17;;;;;;;5.93;2.70;;;12.20;70.60;;;;;;2435988;57;20954;-67
2024/02/07 01:19:43;;;;;;;4.72;2.47;;;12.20;70.50;;;;;;2215669;57;21408;-68
2024/02/07 01:22:10;;;;;;;5.25;2.75;;;12.20;70.50;;;;;;2216603;57;21499;-66
2024/02/07 01:24:36;;;;;;;6.05;2.53;;;12.20;70.10;;;;;;2216448;56;21049;-67
2024/02/07 01:27:04;;;;;;;4.97;2.30;;;12.20;70.50;;;;;;2436185;56;20993;-67
2024/02/07 01:29:39;;;;;;;4.82;2.30;;;12.20;70.50;;;;;;2435414;56;20993;-66
2024/02/07 01:32:06;;;;;;;4.75;2.47;;;12.20;70.50;;;;;;2218386;57;20973;-67
2024/02/07 01:34:32;;;;;;;4.60;2.30;;;12.30;70.50;;;;;;2216042;56;20942;-68
2024/02/07 01:36:58;;;;;;;5.00;2.25;;;12.30;70.60;;;;;;2216475;57;21037;-65
2024/02/07 01:39:25;;;;;;;5.57;2.62;;;12.30;70.60;;;;;;2435943;56;21944;-65
2024/02/07 01:42:00;;;;;;;4.82;2.80;;;12.30;70.50;;;;;;2435479;56;20990;-67
2024/02/07 01:44:28;;;;;;;6.07;2.30;;;12.30;70.50;;;;;;2435753;56;21005;-68
2024/02/07 01:47:12;;;;;;;5.00;2.60;;;12.30;70.60;;;;;;2216390;57;21646;-67
2024/02/07 01:49:45;;;;;;;14.90;3.33;;;12.40;70.70;;;;;;2215484;57;20949;-67
2024/02/07 01:52:25;;;;;;;7.15;2.33;;;12.40;70.60;;;;;;2219189;57;21026;-66
2024/02/07 01:54:52;;;;;;;7.75;2.30;;;12.40;69.90;;;;;;2216868;57;22162;-68
2024/02/07 01:57:19;;;;;;;4.22;2.42;;;12.40;70.60;;;;;;2435840;56;21558;-67
2024/02/07 01:59:46;;;;;;;7.68;2.50;;;12.40;70.70;;;;;;2215264;57;21045;-67
2024/02/07 02:02:12;;;;;;;4.28;2.47;;;12.40;70.60;;;;;;2215378;57;20997;-67
2024/02/07 02:04:38;;;;;;;5.05;2.45;;;12.40;71.40;;;;;;2217158;57;21463;-66
2024/02/07 02:07:05;;;;;;;5.82;3.00;;;12.40;70.60;;;;;;2216875;56;20974;-66
2024/02/07 02:09:31;;;;;;;4.18;2.40;;;12.40;70.60;;;;;;2436350;56;21295;-68
2024/02/07 02:11:57;;;;;;;4.95;2.67;;;12.40;70.70;;;;;;2436188;56;20977;-67
2024/02/07 02:14:24;;;;;;;5.20;2.47;;;12.40;70.60;;;;;;2217176;56;20981;-67
2024/02/07 02:16:50;;;;;;;4.60;2.50;;;12.40;70.50;;;;;;2216649;57;20990;-68
2024/02/07 02:19:17;;;;;;;4.57;2.50;;;12.40;70.70;;;;;;2435670;56;20989;-66
2024/02/07 02:23:13;;;;;;;5.10;2.80;;;12.40;70.70;;;;;;2215919;56;21049;-69
2024/02/07 02:27:21;;;;;;;6.00;2.00;;;12.40;69.00;;;;;;2212561;56;21006;-67
2024/02/07 02:29:53;;;;;;;5.68;2.50;;;12.40;69.00;;;;;;2215715;56;20988;-67
2024/02/07 02:32:22;;;;;;;6.68;2.95;;;12.40;70.60;;;;;;2213488;58;21809;-66
2024/02/07 02:34:50;;;;;;;4.78;2.60;;;12.40;70.30;;;;;;2434739;56;21291;-68
2024/02/07 02:37:16;;;;;;;4.53;2.65;;;12.40;70.40;;;;;;2219958;57;20994;-68
2024/02/07 02:39:43;;;;;;;5.90;2.28;;;12.40;70.50;;;;;;2223356;56;20990;-68
2024/02/07 02:42:09;;;;;;;6.65;2.90;;;12.40;70.40;;;;;;2217918;57;20994;-67
2024/02/07 02:44:35;;;;;;;5.53;2.83;;;12.40;70.50;;;;;;2216270;57;20970;-67
2024/02/07 02:47:07;;;;;;;5.15;2.70;;;12.40;70.50;;;;;;2217021;56;21318;-67
2024/02/07 02:49:36;;;;;;;4.33;2.37;;;12.40;70.60;;;;;;2216884;57;20974;-67
2024/02/07 02:52:03;;;;;;;5.37;2.65;;;12.40;70.50;;;;;;2220957;56;21029;-67
2024/02/07 02:54:32;;;;;;;5.95;2.65;;;12.40;70.60;;;;;;2217132;56;21042;-67
2024/02/07 02:57:02;;;;;;;4.68;2.87;;;12.40;70.40;;;;;;2217238;57;21037;-66
2024/02/07 02:59:32;;;;;;;9.25;3.55;;;12.40;70.60;;;;;;2220024;57;21033;-66
2024/02/07 03:02:08;;;;;;;6.30;2.78;;;12.40;70.20;;;;;;2435495;56;20999;-66
2024/02/07 03:04:41;;;;;;;7.80;3.20;;;12.40;70.30;;;;;;2216583;57;22032;-67
2024/02/07 03:07:36;;;;;;;4.87;2.78;;;12.40;70.10;;;;;;2436110;56;21095;-68
2024/02/07 03:10:04;;;;;;;5.53;2.67;;;12.30;70.10;;;;;;2217204;57;20993;-68
2024/02/07 03:12:35;;;;;;;4.95;2.87;;;12.40;70.60;;;;;;2216348;57;20998;-68
2024/02/07 03:15:02;;;;;;;4.95;2.60;;;12.40;70.50;;;;;;2217472;56;20998;-69
2024/02/07 03:17:28;;;;;;;5.53;3.17;;;12.40;70.70;;;;;;2217149;56;20962;-69
2024/02/07 03:19:55;;;;;;;6.12;2.97;;;12.40;70.30;;;;;;2439118;56;21014;-67
2024/02/07 03:22:24;;;;;;;6.57;3.40;;;12.40;70.50;;;;;;2224220;56;21026;-67
2024/02/07 03:24:55;;;;;;;6.37;3.12;;;12.40;70.30;;;;;;2436041;56;20962;-68
2024/02/07 03:27:21;;;;;;;6.20;3.15;;;12.40;70.50;;;;;;2220000;56;21099;-66
2024/02/07 03:29:50;;;;;;;7.62;3.15;;;12.40;71.10;;;;;;2215886;57;21097;-67
2024/02/07 03:32:19;;;;;;;6.03;2.83;;;12.40;70.30;;;;;;2216568;57;20982;-68
2024/02/07 03:34:49;;;;;;;6.15;3.22;;;12.40;70.40;;;;;;2435830;56;20973;-67
2024/02/07 03:37:16;;;;;;;7.30;3.30;;;12.40;70.20;;;;;;2216584;56;21931;-67
2024/02/07 03:39:42;;;;;;;9.82;3.83;;;12.40;70.40;;;;;;2216801;57;21041;-68
2024/02/07 03:42:10;;;;;;;8.35;2.92;;;12.40;70.40;;;;;;2216429;56;21024;-67
2024/02/07 03:44:39;;;;;;;7.05;3.53;;;12.40;70.40;;;;;;2216985;57;20958;-68
2024/02/07 03:47:05;;;;;;;6.20;2.90;;;12.40;70.50;;;;;;2202687;58;21009;-67
2024/02/07 03:49:31;;;;;;;7.30;3.60;;;12.40;70.50;;;;;;2217181;57;20993;-68
2024/02/07 03:51:59;;;;;;;8.45;3.30;;;12.40;70.30;;;;;;2216658;56;21342;-68
2024/02/07 03:54:25;;;;;;;5.50;2.87;;;12.40;70.40;;;;;;2216840;57;20970;-68
2024/02/07 03:56:53;;;;;;;5.05;2.92;;;12.40;70.50;;;;;;2436164;56;20986;-67
2024/02/07 03:59:20;;;;;;;7.40;3.67;;;12.40;70.50;;;;;;2217358;57;21026;-68
2024/02/07 04:01:46;;;;;;;6.03;3.40;;;12.40;70.30;;;;;;2216531;57;21041;-67
2024/02/07 04:04:12;;;;;;;6.60;3.95;;;12.40;70.30;;;;;;2216630;56;21041;-66
2024/02/07 04:06:39;;;;;;;7.70;3.40;;;12.40;70.10;;;;;;2216912;57;21031;-68
2024/02/07 04:09:05;;;;;;;6.40;3.50;;;12.40;70.40;;;;;;2217193;56;21050;-68
2024/02/07 05:16:51;;;;;;;8.25;3.20;;;12.30;70.80;;;;;;2435364;56;21006;-66
2024/02/07 05:19:18;;;;;;;6.40;3.47;;;12.40;70.90;;;;;;2435964;56;20977;-66
2024/02/07 05:21:44;;;;;;;7.03;3.42;;;12.40;70.80;;;;;;2216473;56;20965;-67
2024/02/07 05:24:11;;;;;;;5.03;2.58;;;12.30;70.80;;;;;;2224870;57;21323;-66
2024/02/07 05:26:38;;;;;;;6.80;3.62;;;12.40;70.80;;;;;;2435312;56;21058;-66
2024/02/07 05:29:05;;;;;;;7.70;3.35;;;12.40;70.70;;;;;;2222286;56;20961;-67
2024/02/07 05:31:31;;;;;;;5.97;3.50;;;12.40;70.70;;;;;;2435642;56;20949;-68
2024/02/07 05:33:58;;;;;;;5.70;3.25;;;12.40;70.90;;;;;;2435116;56;21919;-67
2024/02/07 05:36:27;;;;;;;5.93;3.58;;;12.40;70.90;;;;;;2216797;57;20969;-69
2024/02/07 05:38:53;;;;;;;4.97;2.78;;;12.40;70.50;;;;;;2216355;57;22494;-67
2024/02/07 05:41:20;;;;;;;6.35;3.03;;;12.40;70.70;;;;;;2435392;56;21412;-68
2024/02/07 05:43:46;;;;;;;6.85;3.42;;;12.40;70.80;;;;;;2435436;56;20954;-68
2024/02/07 05:46:13;;;;;;;5.87;2.80;;;12.40;70.90;;;;;;2218443;57;20949;-66
2024/02/07 05:48:42;;;;;;;6.20;3.12;;;12.40;70.90;;;;;;2435494;56;20974;-66
2024/02/07 05:51:21;;;;;;;6.30;3.53;;;12.50;70.80;;;;;;2217989;57;20973;-69
2024/02/07 05:53:48;;;;;;;7.97;3.65;;;12.50;70.20;;;;;;2214237;56;21510;-67
2024/02/07 05:56:16;;;;;;;5.22;3.17;;;12.40;70.80;;;;;;2436080;56;21507;-67
2024/02/07 05:58:43;;;;;;;6.18;3.33;;;12.50;70.90;;;;;;2217851;57;20965;-67
2024/02/07 06:01:11;;;;;;;6.00;3.00;;;12.50;70.90;;;;;;2215694;56;21053;-68
2024/02/07 06:03:38;;;;;;;6.00;3.40;;;12.50;70.90;;;;;;2215846;57;20973;-67
2024/02/07 06:06:06;;;;;;;6.20;3.40;;;12.50;70.90;;;;;;2434958;56;20958;-67
2024/02/07 06:08:33;;;;;;;6.95;3.30;;;12.50;70.70;;;;;;2217081;57;21282;-67
2024/02/07 06:11:00;;;;;;;8.38;3.87;;;12.50;70.70;;;;;;2216531;57;21021;-66
2024/02/07 06:13:26;;;;;;;7.12;3.17;;;12.50;70.50;;;;;;2216206;57;21459;-67
2024/02/07 06:15:53;;;;;;;6.03;3.15;;;12.50;70.80;;;;;;2217105;57;20970;-67
2024/02/07 06:18:20;;;;;;;6.40;3.33;;;12.50;71.00;;;;;;2216981;57;20982;-69
2024/02/07 06:20:46;;;;;;;7.55;3.47;;;12.60;70.90;;;;;;2216782;57;21035;-66
2024/02/07 06:23:14;;;;;;;8.27;3.95;;;12.60;70.80;;;;;;2435624;56;21882;-66
2024/02/07 06:25:40;;;;;;;6.32;3.22;;;12.50;70.70;;;;;;2435759;56;20969;-67
2024/02/07 06:28:06;;;;;;;8.10;3.25;;;12.50;70.80;;;;;;2216220;56;20982;-67
2024/02/07 06:30:33;;;;;;;5.65;3.33;;;12.60;70.90;;;;;;2216994;56;20982;-67
2024/02/07 06:33:00;;;;;;;6.00;3.08;;;12.60;70.90;;;;;;2435466;56;20965;-67
2024/02/07 06:35:27;;;;;;;7.75;2.87;;;12.60;71.00;;;;;;2216733;56;20974;-67
2024/02/07 06:37:53;;;;;;;6.57;2.95;;;12.60;70.90;;;;;;2216672;57;20978;-67
2024/02/07 06:40:20;;;;;;;6.60;2.87;;;12.60;71.00;;;;;;2436315;56;21443;-68
2024/02/07 06:42:48;;;;;;;8.02;3.20;;;12.60;71.00;;;;;;2435870;56;21006;-67
2024/02/07 06:45:14;;;;;;;8.85;3.50;;;12.60;71.00;;;;;;2216270;56;20955;-67
2024/02/07 06:47:40;;;;;;;7.00;3.72;;;12.60;70.90;;;;;;2216399;57;20978;-68
2024/02/07 06:50:08;;;;;;;7.03;3.45;;;12.60;70.80;;;;;;2435266;56;21078;-67
2024/02/07 06:52:34;;;;;;;6.97;2.92;;;12.70;71.00;;;;;;2435557;56;20962;-67
2024/02/07 06:55:01;;;;;;;8.85;3.25;;;12.60;70.90;;;;;;2435221;56;21005;-67
2024/02/07 06:57:27;;;;;;;7.32;2.95;;;12.70;71.10;;;;;;2435684;56;20954;-68
2024/02/07 06:59:53;;;;;;;7.28;3.58;;;12.70;71.10;;;;;;2220918;57;20982;-68
2024/02/07 07:02:20;;;;;;;5.15;3.28;;;12.70;70.90;;;;;;2217563;57;21311;-69
2024/02/07 07:04:49;;;;;;;5.95;3.50;;;12.70;70.70;;;;;;2216004;57;21257;-66
2024/02/07 07:07:15;;;;;;;8.95;3.35;;;12.70;70.80;;;;;;2215060;57;21097;-68
2024/02/07 07:09:41;;;;;;;10.52;3.60;;;12.70;70.90;;;;;;2216687;57;20969;-69
2024/02/07 07:12:08;;;;;;;6.22;2.87;;;12.70;71.00;;;;;;2217177;57;21009;-67
2024/02/07 07:14:42;;;;;;;9.45;3.50;;;12.70;70.90;;;;;;2216510;57;21026;-66
2024/02/07 07:17:09;;;;;;;8.38;3.80;;;12.80;70.80;;;;;;2217056;57;21485;-68
2024/02/07 07:19:39;;;;;;;6.97;3.50;;;12.80;70.90;;;;;;2215520;56;20974;-68
2024/02/07 07:22:05;;;;;;;5.97;2.97;;;12.80;70.50;;;;;;2214585;56;20966;-68
2024/02/07 07:24:31;;;;;;;9.88;3.70;;;12.80;70.90;;;;;;2216124;57;20958;-67
2024/02/07 07:26:58;;;;;;;7.87;3.47;;;12.80;70.70;;;;;;2435498;56;21027;-69
2024/02/07 07:29:26;;;;;;;6.03;3.37;;;12.80;70.70;;;;;;2216351;57;21451;-67
2024/02/07 07:31:52;;;;;;;7.70;3.65;;;12.80;70.90;;;;;;2218512;57;20977;-68
2024/02/07 07:34:18;;;;;;;9.23;3.80;;;12.80;71.00;;;;;;2215496;57;21853;-67
2024/02/07 07:36:47;;;;;;;7.12;3.28;;;12.80;70.90;;;;;;2436085;56;20969;-68
2024/02/07 07:39:13;;;;;;;6.50;3.30;;;12.80;70.80;;;;;;2216220;57;20974;-66
2024/02/07 07:41:39;;;;;;;9.25;3.60;;;12.80;70.60;;;;;;2216711;57;21037;-66
2024/02/07 07:44:05;;;;;;;7.18;3.10;;;12.80;70.80;;;;;;2215830;57;21520;-69
2024/02/07 07:46:41;;;;;;;7.55;3.53;;;12.80;70.80;;;;;;2217156;56;20986;-68
2024/02/07 07:49:07;;;;;;;7.75;4.12;;;12.80;70.30;;;;;;2216433;56;20985;-66
2024/02/07 07:51:35;;;;;;;6.70;3.70;;;12.80;70.80;;;;;;2435570;57;21843;-68
2024/02/07 07:54:01;;;;;;;7.25;3.87;;;12.80;70.80;;;;;;2437453;56;20977;-68
2024/02/07 07:56:31;;;;;;;7.82;3.53;;;12.80;70.80;;;;;;2220928;56;21564;-67
2024/02/07 07:58:57;;;;;;;6.60;3.55;;;12.80;71.00;;;;;;2216336;56;21434;-69
2024/02/07 08:01:24;;;;;;;6.85;3.42;;;12.80;70.90;;;;;;2216250;56;21078;-66
2024/02/07 08:03:53;;;;;;;6.82;3.92;;;12.80;71.00;;;;;;2216704;56;21605;-68
2024/02/07 08:06:21;;;;;;;9.95;3.87;;;12.80;70.80;;;;;;2216253;56;20983;-67
2024/02/07 08:08:47;;;;;;;7.18;3.30;;;12.80;70.70;;;;;;2216862;56;21491;-68
2024/02/07 08:11:13;;;;;;;9.30;3.92;;;12.80;70.90;;;;;;2216275;56;21045;-67
2024/02/07 08:13:39;;;;;;;8.82;3.28;;;12.80;71.10;;;;;;2435521;56;20958;-69
2024/02/07 08:16:06;;;;;;;8.45;4.20;;;12.80;71.10;;;;;;2216601;56;20969;-68
2024/02/07 08:18:33;;;;;;;6.30;3.33;;;12.80;71.10;;;;;;2217142;57;20965;-68
2024/02/07 08:21:00;;;;;;;8.77;3.70;;;12.80;71.10;;;;;;2217301;57;21128;-67
2024/02/07 08:23:28;;;;;;;7.55;3.78;;;12.80;71.10;;;;;;2219218;57;20988;-68
2024/02/07 08:25:55;;;;;;;8.90;4.37;;;12.80;71.00;;;;;;2216342;57;21875;-67
2024/02/07 08:28:21;;;;;;;9.85;4.07;;;12.80;70.90;;;;;;2435474;56;20998;-69
2024/02/07 08:30:48;;;;;;;9.57;3.58;;;12.90;71.10;;;;;;2217019;57;21033;-68
2024/02/07 08:33:14;;;;;;;8.02;4.03;;;12.90;71.20;;;;;;2216239;57;21030;-66
2024/02/07 08:35:41;;;;;;;6.28;3.80;;;12.90;71.10;;;;;;2216776;56;21439;-66
2024/02/07 08:38:07;;;;;;;8.80;4.25;;;12.90;71.90;;;;;;2216571;57;20961;-67
2024/02/07 08:40:33;;;;;;;6.07;3.03;;;12.90;71.20;;;;;;2217170;57;20977;-68
2024/02/07 08:43:03;;;;;;;9.10;3.55;;;12.90;71.30;;;;;;2217058;57;20969;-69
2024/02/07 08:45:30;;;;;;;8.48;3.70;;;12.90;71.40;;;;;;2216789;56;20942;-66
2024/02/07 08:47:56;;;;;;;7.82;3.90;;;13.00;71.20;;;;;;2215932;57;21049;-67
2024/02/07 08:50:22;;;;;;;10.93;4.00;;;13.00;71.20;;;;;;2216279;57;21035;-66
2024/02/07 08:52:48;;;;;;;9.40;3.90;;;13.00;71.10;;;;;;2217019;56;20937;-67
2024/02/07 08:55:15;;;;;;;8.65;3.47;;;13.00;71.10;;;;;;2216991;57;20974;-68
2024/02/07 08:57:41;;;;;;;7.87;3.60;;;13.00;71.20;;;;;;2216711;57;20954;-68
2024/02/07 09:00:09;;;;;;;9.23;3.67;;;13.00;71.30;;;;;;2435974;56;21459;-68
2024/02/07 09:02:35;;;;;;;10.10;3.55;;;13.00;71.30;;;;;;2216463;56;21101;-66
2024/02/07 09:05:04;;;;;;;8.85;3.75;;;13.00;71.40;;;;;;2217001;56;21006;-69
2024/02/07 09:07:34;;;;;;;8.93;4.12;;;13.10;71.50;;;;;;2435817;56;21408;-67
2024/02/07 09:10:03;;;;;;;8.37;3.87;;;13.10;71.50;;;;;;2217584;57;20930;-69
2024/02/07 09:12:29;;;;;;;6.87;3.55;;;13.10;71.50;;;;;;2435599;57;21508;-66
2024/02/07 09:14:56;;;;;;;5.72;3.55;;;13.10;71.60;;;;;;2216774;56;20994;-66
2024/02/07 09:17:23;;;;;;;9.48;4.47;;;13.10;71.50;;;;;;2216343;57;20978;-67
2024/02/07 09:19:49;;;;;;;7.40;3.33;;;13.10;71.50;;;;;;2216409;56;21302;-67
2024/02/07 09:22:21;;;;;;;9.30;4.70;;;13.10;71.50;;;;;;2216442;57;21052;-69
2024/02/07 09:24:47;;;;;;;8.43;4.57;;;13.10;71.50;;;;;;2440351;56;20975;-69
2024/02/07 09:27:14;;;;;;;11.20;4.32;;;13.10;71.50;;;;;;2216089;57;21569;-67
2024/02/07 09:29:40;;;;;;;8.55;3.78;;;13.10;71.40;;;;;;2216433;57;21403;-67
2024/02/07 09:32:06;;;;;;;9.80;3.87;;;13.20;71.50;;;;;;2220572;56;21761;-68
2024/02/07 09:34:33;;;;;;;6.82;3.72;;;13.20;71.40;;;;;;2216637;57;20990;-67
2024/02/07 09:37:00;;;;;;;5.07;2.70;;;13.20;71.50;;;;;;2216088;57;21081;-67
2024/02/07 09:39:26;;;;;;;6.18;2.92;;;13.20;71.50;;;;;;2219926;57;21498;-67
2024/02/07 09:41:53;;;;;;;7.53;3.40;;;13.20;71.50;;;;;;2220792;57;21079;-66
2024/02/07 09:44:19;;;;;;;6.35;3.00;;;13.20;71.40;;;;;;2436569;56;22114;-65
2024/02/07 09:46:46;;;;;;;11.73;4.00;;;13.30;71.50;;;;;;2436072;56;21642;-68
2024/02/07 09:49:13;;;;;;;6.75;3.42;;;13.20;71.00;;;;;;2217045;56;21729;-68
2024/02/07 09:51:40;;;;;;;7.43;3.83;;;13.20;71.20;;;;;;2216444;57;21097;-67
2024/02/07 09:54:08;;;;;;;8.68;4.22;;;13.20;71.30;;;;;;2216829;57;21188;-67
2024/02/07 09:56:34;;;;;;;9.98;5.43;;;13.20;71.40;;;;;;2215530;56;21803;-69
2024/02/07 09:59:01;;;;;;;10.80;6.07;;;13.20;71.50;;;;;;2436089;56;20973;-68
2024/02/07 10:01:29;;;;;;;8.45;4.90;;;13.20;71.60;;;;;;2435921;56;20982;-68
2024/02/07 10:03:57;;;;;;;10.73;6.87;;;13.20;71.60;;;;;;2216817;56;20985;-68
2024/02/07 10:06:24;;;;;;;9.48;5.07;;;13.30;71.60;;;;;;2216180;57;21751;-67
2024/02/07 10:08:50;;;;;;;11.20;4.93;;;13.30;71.60;;;;;;2216506;57;20993;-68
2024/02/07 10:11:17;;;;;;;8.57;5.35;;;13.30;71.70;;;;;;2216086;56;21998;-65
2024/02/07 10:13:43;;;;;;;8.32;4.55;;;13.30;71.60;;;;;;2216560;56;20970;-68
2024/02/07 10:16:10;;;;;;;7.22;3.65;;;13.30;71.60;;;;;;2216714;56;21037;-66
2024/02/07 10:18:36;;;;;;;9.55;3.62;;;13.30;71.60;;;;;;2435541;56;21011;-68
2024/02/07 10:21:03;;;;;;;6.95;3.20;;;13.30;71.60;;;;;;2216760;56;21800;-67
2024/02/07 10:23:30;;;;;;;7.80;2.83;;;13.40;71.60;;;;;;2216260;56;20993;-68
2024/02/07 10:26:01;;;;;;;5.50;2.78;;;13.40;71.70;;;;;;2435423;57;21017;-66
2024/02/07 10:28:27;;;;;;;7.70;3.78;;;13.40;71.80;;;;;;2217102;57;21025;-67
2024/02/07 10:31:01;;;;;;;6.37;3.00;;;13.40;71.70;;;;;;2435879;56;21781;-67
2024/02/07 10:33:45;;;;;;;7.05;3.10;;;13.40;71.50;;;;;;2435395;56;20978;-67
2024/02/07 10:36:13;;;;;;;5.78;3.15;;;13.40;71.30;;;;;;2216862;56;21179;-67
2024/02/07 10:38:39;;;;;;;5.62;2.78;;;13.50;72.10;;;;;;2217006;56;21109;-67
2024/02/07 10:41:05;;;;;;;8.73;2.97;;;13.50;72.10;;;;;;2217363;56;21522;-66
2024/02/07 10:43:38;;;;;;;6.72;3.22;;;13.60;72.10;;;;;;2435235;56;20981;-66
2024/02/07 10:46:10;;;;;;;5.45;2.83;;;13.60;71.90;;;;;;2436291;56;21558;-67
2024/02/07 10:48:37;;;;;;;5.22;2.85;;;13.60;72.10;;;;;;2219554;56;21350;-66
2024/02/07 10:51:03;;;;;;;7.93;3.20;;;13.60;72.00;;;;;;2217092;57;21017;-67
2024/02/07 10:53:30;;;;;;;7.30;3.15;;;13.60;71.70;;;;;;2436799;56;21318;-67
2024/02/07 10:56:01;;;;;;;5.37;3.10;;;13.70;71.70;;;;;;2435328;56;21703;-67
2024/02/07 10:58:29;;;;;;;8.13;3.30;;;13.70;71.50;;;;;;2216268;57;20986;-66
2024/02/07 11:00:56;;;;;;;7.95;3.22;;;13.80;71.90;;;;;;2216419;56;21419;-67
2024/02/07 11:03:26;;;;;;;7.57;3.72;;;13.80;71.70;;;;;;2216357;57;21554;-68
2024/02/07 11:05:52;;;;;;;6.05;2.97;;;13.80;71.80;;;;;;2436138;56;21160;-68
2024/02/07 11:08:19;;;;;;;7.57;2.80;;;13.80;71.70;;;;;;2217091;57;20974;-67
2024/02/07 11:10:46;;;;;;;7.43;2.90;;;13.90;71.90;;;;;;2217012;56;21002;-67
2024/02/07 11:13:12;;;;;;;7.37;3.20;;;13.90;71.80;;;;;;2221294;57;21346;-68
2024/02/07 11:15:39;;;;;;;6.53;3.33;;;13.90;72.40;;;;;;2216120;57;21013;-68
2024/02/07 11:18:06;;;;;;;6.72;2.90;;;13.90;71.50;;;;;;2436383;56;20957;-68
2024/02/07 11:20:33;;;;;;;5.62;3.17;;;13.90;71.50;;;;;;2216469;56;21669;-66
2024/02/07 11:23:04;;;;;;;6.10;2.45;;;13.90;71.50;;;;;;2435291;56;21805;-66
2024/02/07 11:25:30;;;;;;;4.97;2.25;;;14.00;71.40;;;;;;2216668;56;20978;-66
2024/02/07 11:27:56;;;;;;;4.97;1.90;;;14.00;71.70;;;;;;2216355;56;21802;-66
2024/02/07 11:30:22;;;;;;;4.37;2.08;;;14.00;71.60;;;;;;2217010;56;21070;-67
2024/02/07 11:32:51;;;;;;;5.07;2.33;;;14.10;71.70;;;;;;2216174;57;22299;-67
2024/02/07 11:35:21;;;;;;;5.40;2.40;;;14.10;71.70;;;;;;2215323;57;21386;-68
2024/02/07 11:37:50;;;;;;;5.72;2.50;;;14.10;71.10;;;;;;2434790;56;20969;-67
2024/02/07 11:40:17;;;;;;;5.72;2.15;;;14.10;71.00;;;;;;2217106;56;20982;-68
2024/02/07 11:42:44;;;;;;;4.75;2.50;;;14.10;71.40;;;;;;2216425;56;21000;-67
2024/02/07 11:45:14;;;;;;;5.25;2.62;;;14.20;71.50;;;;;;2217233;56;20992;-67
2024/02/07 11:47:43;;;;;;;5.07;2.03;;;14.20;71.20;;;;;;2216046;57;21014;-67
2024/02/07 11:50:16;;;;;;;4.80;2.05;;;14.20;71.30;;;;;;2216765;57;21066;-69
2024/02/07 11:52:45;;;;;;;5.57;2.12;;;14.20;71.20;;;;;;2215421;56;20982;-66
2024/02/07 11:55:16;;;;;;;7.85;2.65;;;14.30;71.50;;;;;;2217013;57;20982;-67
2024/02/07 11:57:51;;;;;;;6.03;2.35;;;14.20;71.10;;;;;;2216778;57;20977;-67
2024/02/07 12:00:20;;;;;;;4.80;2.30;;;14.20;70.80;;;;;;2216722;57;21010;-68
2024/02/07 12:02:51;;;;;;;4.40;2.15;;;14.20;71.40;;;;;;2435477;56;21031;-67
2024/02/07 12:05:18;;;;;;;5.78;2.25;;;14.30;71.20;;;;;;2216875;56;21093;-68
2024/02/07 12:07:46;;;;;;;6.62;2.62;;;14.30;71.40;;;;;;2215806;56;20954;-68
2024/02/07 12:10:13;;;;;;;6.93;2.12;;;14.20;70.90;;;;;;2433164;56;22156;-69
2024/02/07 12:12:46;;;;;;;5.85;2.03;;;14.20;71.20;;;;;;2211947;56;20946;-67
2024/02/07 12:15:13;;;;;;;4.45;2.00;;;14.20;70.90;;;;;;2430837;56;20990;-68
2024/02/07 12:17:39;;;;;;;3.80;2.30;;;14.30;71.40;;;;;;2216363;57;21468;-67
2024/02/07 12:20:07;;;;;;;4.47;2.10;;;14.30;71.40;;;;;;2212746;56;20969;-67
2024/02/07 12:22:35;;;;;;;4.12;2.28;;;14.30;71.00;;;;;;2429745;56;20974;-67
2024/02/07 12:25:04;;;;;;;5.12;2.20;;;14.30;71.30;;;;;;2212177;58;20973;-66
2024/02/07 12:27:34;;;;;;;4.00;2.10;;;14.30;71.30;;;;;;2214382;56;21089;-68
2024/02/07 12:30:00;;;;;;;7.57;2.30;;;14.30;71.00;;;;;;2218264;56;21034;-68
2024/02/07 12:32:27;;;;;;;6.07;2.22;;;14.30;71.00;;;;;;2221256;57;20971;-68
2024/02/07 12:34:54;;;;;;;6.25;2.33;;;14.40;71.30;;;;;;2217398;57;21762;-67
2024/02/07 12:37:21;;;;;;;4.65;2.08;;;14.30;71.30;;;;;;2216762;57;21108;-68
2024/02/07 12:39:49;;;;;;;5.65;2.28;;;14.40;71.30;;;;;;2216216;57;21733;-68
2024/02/07 12:42:26;;;;;;;4.97;2.83;;;14.40;71.20;;;;;;2217362;57;21061;-66
2024/02/07 12:44:55;;;;;;;6.32;3.58;;;14.40;70.40;;;;;;2434880;57;21010;-68
2024/02/07 12:47:22;;;;;;;7.43;3.70;;;14.40;70.60;;;;;;2217344;56;20886;-67
2024/02/07 12:49:50;;;;;;;6.15;2.67;;;14.40;70.50;;;;;;2222730;57;20969;-66
2024/02/07 12:52:17;;;;;;;6.78;2.72;;;14.40;70.50;;;;;;2218149;56;21034;-66
2024/02/07 12:54:46;;;;;;;5.70;2.37;;;14.50;70.20;;;;;;2216672;57;21026;-69
2024/02/07 12:57:25;;;;;;;5.85;2.40;;;14.50;70.10;;;;;;2216951;56;20969;-67
2024/02/07 12:59:51;;;;;;;6.90;1.92;;;14.50;69.70;;;;;;2435833;56;21745;-67
2024/02/07 13:02:18;;;;;;;4.28;2.25;;;14.50;70.80;;;;;;2216582;57;21737;-67
2024/02/07 13:04:44;;;;;;;5.93;1.95;;;14.50;70.80;;;;;;2217049;56;20995;-67
2024/02/07 13:07:12;;;;;;;5.22;2.20;;;14.50;70.30;;;;;;2216779;56;20969;-68
2024/02/07 13:09:42;;;;;;;5.47;2.10;;;14.50;70.60;;;;;;2216619;56;21542;-67
2024/02/07 13:12:14;;;;;;;5.40;2.10;;;14.60;70.60;;;;;;2222166;57;20966;-67
2024/02/07 13:14:43;;;;;;;5.22;2.20;;;14.60;70.00;;;;;;2435776;56;21243;-68
2024/02/07 13:17:10;;;;;;;6.62;2.10;;;14.60;70.30;;;;;;2217580;56;21056;-66
2024/02/07 13:19:36;;;;;;;5.30;2.03;;;14.60;69.90;;;;;;2436269;56;21852;-66
2024/02/07 13:22:13;;;;;;;5.57;1.90;;;14.60;70.30;;;;;;2218150;57;21018;-68
2024/02/07 13:24:40;;;;;;;5.65;2.20;;;14.60;69.70;;;;;;2435858;56;20966;-68
2024/02/07 13:27:06;;;;;;;5.93;2.28;;;14.60;70.30;;;;;;2216184;57;21086;-68
2024/02/07 13:29:35;;;;;;;6.05;2.28;;;14.60;70.40;;;;;;2217338;57;20946;-66
2024/02/07 13:32:03;;;;;;;5.20;2.33;;;14.50;70.20;;;;;;2217478;57;21022;-67
2024/02/07 13:34:30;;;;;;;4.87;2.90;;;14.60;70.20;;;;;;2436743;57;21038;-67
2024/02/07 13:36:58;;;;;;;6.37;2.70;;;14.50;70.20;;;;;;2216152;57;21034;-67
2024/02/07 13:39:26;;;;;;;5.35;2.20;;;14.50;70.80;;;;;;2217331;56;20986;-68
2024/02/07 13:41:52;;;;;;;6.40;2.65;;;14.50;70.40;;;;;;2216607;57;21610;-67
2024/02/07 13:44:19;;;;;;;6.40;2.30;;;14.50;70.40;;;;;;2436142;56;21009;-69
2024/02/07 13:46:46;;;;;;;6.15;2.17;;;14.50;70.40;;;;;;2216659;56;20990;-68
2024/02/07 13:49:14;;;;;;;4.60;2.35;;;14.40;70.30;;;;;;2216792;56;21036;-67
2024/02/07 13:51:41;;;;;;;5.03;2.42;;;14.40;70.30;;;;;;2216618;56;20954;-68
2024/02/07 13:54:07;;;;;;;7.70;2.33;;;14.40;70.30;;;;;;2217326;56;21539;-68
2024/02/07 13:56:33;;;;;;;6.72;3.12;;;14.40;70.50;;;;;;2217611;57;20974;-67